createdAt,value
2023-02-05T00:01:06.104Z,51.50
2023-02-05T00:03:37.777Z,50.30
2023-02-05T00:06:09.022Z,49.20
2023-02-05T00:08:39.413Z,47.50
2023-02-05T00:11:11.331Z,47.20
2023-02-05T00:13:44.071Z,47.30
2023-02-05T00:16:17.354Z,48.60
2023-02-05T00:18:48.031Z,47.60
2023-02-05T00:21:19.780Z,47.40
2023-02-05T00:23:51.277Z,47.30
2023-02-05T00:26:21.778Z,46.80
2023-02-05T00:28:52.222Z,46.10
2023-02-05T00:31:24.008Z,44.80
2023-02-05T00:33:55.311Z,44.70
2023-02-05T00:36:26.357Z,45.10
2023-02-05T00:38:56.813Z,44.70
2023-02-05T00:41:27.345Z,45.20
2023-02-05T00:43:57.841Z,44.40
2023-02-05T00:46:28.102Z,42.90
2023-02-05T00:48:58.580Z,41.40
2023-02-05T00:51:28.802Z,43.00
2023-02-05T00:53:59.263Z,44.20
2023-02-05T00:56:29.478Z,42.90
2023-02-05T00:59:02.228Z,44.20
2023-02-05T01:01:33.025Z,43.40
2023-02-05T01:04:03.798Z,43.60
2023-02-05T01:06:34.376Z,43.60
2023-02-05T01:09:04.820Z,42.60
2023-02-05T01:11:48.964Z,43.50
2023-02-05T01:14:19.348Z,43.30
2023-02-05T01:16:49.759Z,44.10
2023-02-05T01:19:20.114Z,44.00
2023-02-05T01:22:00.691Z,43.90
2023-02-05T01:26:13.538Z,41.70
2023-02-05T01:27:35.942Z,40.80
2023-02-05T01:30:08.361Z,42.90
2023-02-05T01:32:38.662Z,44.30
2023-02-05T01:35:09.177Z,43.10
2023-02-05T01:37:39.426Z,42.50
2023-02-05T01:40:13.823Z,42.50
2023-02-05T01:42:52.652Z,41.40
2023-02-05T01:45:25.419Z,41.70
2023-02-05T01:48:02.472Z,41.40
2023-02-05T01:50:44.235Z,40.60
2023-02-05T01:53:27.287Z,42.40
2023-02-05T01:56:04.354Z,40.70
2023-02-05T01:58:42.069Z,41.30
2023-02-05T02:01:12.536Z,40.70
2023-02-05T02:03:43.598Z,41.80
2023-02-05T02:06:13.965Z,39.80
2023-02-05T02:08:44.270Z,40.50
2023-02-05T02:11:19.025Z,38.60
2023-02-05T02:13:52.902Z,39.90
2023-02-05T02:16:23.822Z,40.10
2023-02-05T02:18:55.221Z,40.40
2023-02-05T02:21:28.741Z,39.50
2023-02-05T02:24:28.770Z,39.70
2023-02-05T02:27:15.858Z,39.00
2023-02-05T02:30:11.168Z,38.50
2023-02-05T02:32:48.752Z,39.40
2023-02-05T02:35:28.239Z,39.10
2023-02-05T02:38:29.780Z,38.50
2023-02-05T02:41:16.028Z,38.00
2023-02-05T02:44:01.427Z,38.30
2023-02-05T02:46:48.446Z,38.10
2023-02-05T02:49:33.238Z,37.90
2023-02-05T02:52:07.874Z,38.60
2023-02-05T02:54:42.461Z,38.80
2023-02-05T02:57:14.106Z,39.40
2023-02-05T02:59:47.623Z,38.50
2023-02-05T03:02:19.180Z,38.60
2023-02-05T03:04:56.421Z,39.60
2023-02-05T03:07:41.052Z,36.80
2023-02-05T03:10:31.030Z,38.60
2023-02-05T03:13:01.268Z,37.90
2023-02-05T03:15:32.005Z,38.30
2023-02-05T03:18:02.604Z,38.10
2023-02-05T03:20:38.194Z,38.50
2023-02-05T03:23:08.557Z,38.10
2023-02-05T03:25:38.982Z,39.00
2023-02-05T03:28:09.333Z,38.80
2023-02-05T03:30:59.191Z,37.70
2023-02-05T03:34:05.411Z,38.80
2023-02-05T03:36:50.136Z,36.50
2023-02-05T03:39:21.252Z,37.70
2023-02-05T03:42:09.429Z,37.00
2023-02-05T03:45:09.986Z,38.50
2023-02-05T03:48:09.448Z,39.90
2023-02-05T03:51:04.278Z,37.80
2023-02-05T03:53:46.772Z,38.50
2023-02-05T03:56:41.111Z,39.80
2023-02-05T03:59:13.626Z,40.00
2023-02-05T04:01:46.259Z,39.60
2023-02-05T04:04:16.746Z,38.10
2023-02-05T04:06:52.604Z,38.80
2023-02-05T04:09:23.171Z,39.40
2023-02-05T04:11:53.404Z,38.70
2023-02-05T04:14:23.707Z,39.00
2023-02-05T04:16:53.957Z,39.50
2023-02-05T04:19:24.273Z,38.60
2023-02-05T04:21:54.499Z,39.40
2023-02-05T04:24:24.810Z,40.40
2023-02-05T04:26:55.073Z,40.70
2023-02-05T04:29:25.434Z,40.00
2023-02-05T04:31:55.716Z,40.00
2023-02-05T04:34:26.010Z,39.80
2023-02-05T04:36:56.245Z,40.90
2023-02-05T04:39:26.453Z,40.30
2023-02-05T04:41:56.703Z,39.70
2023-02-05T04:44:27.329Z,40.80
2023-02-05T04:46:57.558Z,41.20
2023-02-05T04:49:27.980Z,40.60
2023-02-05T04:51:58.199Z,40.00
2023-02-05T04:54:29.973Z,40.50
2023-02-05T04:57:00.238Z,40.50
2023-02-05T04:59:31.968Z,41.00
2023-02-05T05:02:02.420Z,40.90
2023-02-05T05:04:32.739Z,40.90
2023-02-05T05:07:03.022Z,40.30
2023-02-05T05:09:33.299Z,41.90
2023-02-05T05:12:03.634Z,40.30
2023-02-05T05:14:33.917Z,40.10
2023-02-05T05:17:04.158Z,41.80
2023-02-05T05:19:34.479Z,39.40
2023-02-05T05:22:04.811Z,40.60
2023-02-05T05:24:35.094Z,40.50
2023-02-05T05:27:05.340Z,41.90
2023-02-05T05:29:35.708Z,38.20
2023-02-05T05:32:06.354Z,39.50
2023-02-05T05:34:36.626Z,38.80
2023-02-05T05:37:06.924Z,39.90
2023-02-05T05:39:54.895Z,41.00
2023-02-05T05:42:42.878Z,41.90
2023-02-05T05:45:13.605Z,40.60
2023-02-05T05:47:43.823Z,40.10
2023-02-05T05:50:14.114Z,40.40
2023-02-05T05:52:44.349Z,40.80
2023-02-05T05:55:14.581Z,40.90
2023-02-05T05:57:44.822Z,40.50
2023-02-05T06:00:16.108Z,41.10
2023-02-05T06:02:46.731Z,40.80
2023-02-05T06:05:17.080Z,42.30
2023-02-05T06:07:47.311Z,40.80
2023-02-05T06:10:17.767Z,41.70
2023-02-05T06:12:48.080Z,38.30
2023-02-05T06:15:18.542Z,40.30
2023-02-05T06:17:49.888Z,40.30
2023-02-05T06:20:20.516Z,39.60
2023-02-05T06:22:51.316Z,40.00
2023-02-05T06:25:21.985Z,40.00
2023-02-05T06:27:52.499Z,39.90
2023-02-05T06:30:22.949Z,40.30
2023-02-05T06:32:53.340Z,40.40
2023-02-05T06:35:23.636Z,40.00
2023-02-05T06:37:54.126Z,40.10
2023-02-05T06:40:27.466Z,40.30
2023-02-05T06:42:58.239Z,39.10
2023-02-05T06:45:28.453Z,39.80
2023-02-05T06:47:59.488Z,39.90
2023-02-05T06:50:29.820Z,40.60
2023-02-05T06:53:00.397Z,40.50
2023-02-05T06:55:30.705Z,40.80
2023-02-05T06:58:01.220Z,42.10
2023-02-05T07:00:32.483Z,41.00
2023-02-05T07:03:03.237Z,40.40
2023-02-05T07:05:35.184Z,40.20
2023-02-05T07:08:07.422Z,41.40
2023-02-05T07:10:37.729Z,41.10
2023-02-05T07:13:08.018Z,41.90
2023-02-05T07:15:41.300Z,40.30
2023-02-05T07:18:11.910Z,41.20
2023-02-05T07:20:42.216Z,41.40
2023-02-05T07:23:12.802Z,41.70
2023-02-05T07:25:43.081Z,40.40
2023-02-05T07:28:13.445Z,40.40
2023-02-05T07:30:43.916Z,40.20
2023-02-05T07:33:14.213Z,39.40
2023-02-05T07:35:44.604Z,41.00
2023-02-05T07:38:26.093Z,39.80
2023-02-05T07:40:56.294Z,40.80
2023-02-05T07:43:27.030Z,40.70
2023-02-05T07:46:01.382Z,39.70
2023-02-05T07:48:31.696Z,40.00
2023-02-05T07:51:02.681Z,40.80
2023-02-05T07:53:33.027Z,41.70
2023-02-05T07:56:07.149Z,40.60
2023-02-05T07:58:49.530Z,40.30
2023-02-05T08:01:28.820Z,40.70
2023-02-05T08:04:02.555Z,39.90
2023-02-05T08:06:35.740Z,40.50
2023-02-05T08:09:08.090Z,41.20
2023-02-05T08:11:39.800Z,40.00
2023-02-05T08:14:10.988Z,40.10
2023-02-05T08:16:42.194Z,41.00
2023-02-05T08:19:18.478Z,40.60
2023-02-05T08:21:49.793Z,41.30
2023-02-05T08:24:21.612Z,41.90
2023-02-05T08:26:52.251Z,43.00
2023-02-05T08:29:24.154Z,42.80
2023-02-05T08:31:55.652Z,43.30
2023-02-05T08:34:27.457Z,42.50
2023-02-05T08:36:59.510Z,42.70
2023-02-05T08:39:30.055Z,43.80
2023-02-05T08:42:02.116Z,43.90
2023-02-05T08:44:34.562Z,44.60
2023-02-05T08:47:05.575Z,45.40
2023-02-05T08:49:38.231Z,44.40
2023-02-05T08:52:09.691Z,44.60
2023-02-05T08:54:41.305Z,44.70
2023-02-05T08:57:14.495Z,44.80
2023-02-05T08:59:45.629Z,45.00
2023-02-05T09:02:19.418Z,45.10
2023-02-05T09:04:52.790Z,45.60
2023-02-05T09:07:26.989Z,45.80
2023-02-05T09:09:57.385Z,48.00
2023-02-05T09:12:27.764Z,46.70
2023-02-05T09:14:58.135Z,45.60
2023-02-05T09:17:29.444Z,46.10
2023-02-05T09:19:59.895Z,45.90
2023-02-05T09:22:30.788Z,46.50
2023-02-05T09:25:01.232Z,46.30
2023-02-05T09:27:32.185Z,46.50
2023-02-05T09:30:02.524Z,47.30
2023-02-05T09:32:32.851Z,48.50
2023-02-05T09:35:03.085Z,49.30
2023-02-05T09:37:33.586Z,50.20
2023-02-05T09:40:21.305Z,49.70
2023-02-05T09:43:25.481Z,50.30
2023-02-05T09:46:12.133Z,51.30
2023-02-05T09:48:51.226Z,52.50
2023-02-05T09:51:37.321Z,55.60
2023-02-05T09:54:44.210Z,58.40
2023-02-05T09:57:22.610Z,62.50
2023-02-05T09:59:54.100Z,64.00
2023-02-05T10:02:30.970Z,65.80
2023-02-05T10:05:03.002Z,66.50
2023-02-05T10:07:39.182Z,67.40
2023-02-05T10:10:17.925Z,68.10
2023-02-05T10:13:14.821Z,68.70
2023-02-05T10:16:15.788Z,69.20
2023-02-05T10:19:16.906Z,69.60
2023-02-05T10:22:13.727Z,70.10
2023-02-05T10:25:17.663Z,70.10
2023-02-05T10:28:06.235Z,70.30
2023-02-05T10:30:59.972Z,70.60
2023-02-05T10:34:03.398Z,71.00
2023-02-05T10:36:34.718Z,71.30
2023-02-05T10:39:14.064Z,71.40
2023-02-05T10:42:26.909Z,71.60
2023-02-05T10:45:28.109Z,72.40
2023-02-05T10:48:39.356Z,72.80
2023-02-05T10:51:20.241Z,72.60
2023-02-05T10:53:50.489Z,72.80
2023-02-05T10:56:22.180Z,72.90
2023-02-05T10:59:00.409Z,72.90
2023-02-05T11:01:40.095Z,73.10
2023-02-05T11:04:40.385Z,73.40
2023-02-05T11:07:16.522Z,73.50
2023-02-05T11:09:47.848Z,74.10
2023-02-05T11:12:39.092Z,74.80
2023-02-05T11:15:25.705Z,74.60
2023-02-05T11:18:02.561Z,74.80
2023-02-05T11:20:39.634Z,75.00
2023-02-05T11:23:24.135Z,75.00
2023-02-05T11:26:03.335Z,75.30
2023-02-05T11:28:42.950Z,75.50
2023-02-05T11:31:30.029Z,75.70
2023-02-05T11:34:12.041Z,75.90
2023-02-05T11:36:55.818Z,76.20
2023-02-05T11:39:38.443Z,76.50
2023-02-05T11:42:20.757Z,77.10
2023-02-05T11:45:01.124Z,76.90
2023-02-05T11:47:41.472Z,77.60
2023-02-05T11:50:28.422Z,77.00
2023-02-05T11:53:08.604Z,77.00
2023-02-05T11:55:39.363Z,77.60
2023-02-05T11:58:35.849Z,78.40
2023-02-05T12:01:23.665Z,77.70
2023-02-05T12:04:13.794Z,78.20
2023-02-05T12:07:19.213Z,78.50
2023-02-05T12:09:50.173Z,78.50
2023-02-05T12:13:09.915Z,78.10
2023-02-05T12:15:56.038Z,78.00
2023-02-05T12:18:56.499Z,78.20
2023-02-05T12:21:33.389Z,79.50
2023-02-05T12:24:21.808Z,78.70
2023-02-05T12:26:59.054Z,78.80
2023-02-05T12:30:04.483Z,79.20
2023-02-05T12:32:51.792Z,78.90
2023-02-05T12:35:24.831Z,79.30
2023-02-05T12:38:03.870Z,79.50
2023-02-05T12:40:42.902Z,79.70
2023-02-05T12:43:40.477Z,79.80
2023-02-05T12:46:34.506Z,79.50
2023-02-05T12:49:14.873Z,79.70
2023-02-05T12:52:12.578Z,80.40
2023-02-05T12:55:21.919Z,80.10
2023-02-05T12:58:15.588Z,80.10
2023-02-05T13:00:52.161Z,80.20
2023-02-05T13:03:28.199Z,80.90
2023-02-05T13:06:18.768Z,80.80
2023-02-05T13:09:02.229Z,80.60
2023-02-05T13:11:53.505Z,80.60
2023-02-05T13:14:39.151Z,81.10
2023-02-05T13:17:44.429Z,81.30
2023-02-05T13:20:46.008Z,80.90
2023-02-05T13:23:35.855Z,80.90
2023-02-05T13:26:18.499Z,80.80
2023-02-05T13:29:00.507Z,81.30
2023-02-05T13:31:50.718Z,81.60
2023-02-05T13:34:21.774Z,81.50
2023-02-05T13:37:07.229Z,81.90
2023-02-05T13:39:52.786Z,82.20
2023-02-05T13:42:23.083Z,82.20
2023-02-05T13:44:59.182Z,82.10
2023-02-05T13:47:29.493Z,82.70
2023-02-05T13:50:20.527Z,82.70
2023-02-05T13:52:56.394Z,82.90
2023-02-05T13:55:39.124Z,82.90
2023-02-05T13:58:24.139Z,82.80
2023-02-05T14:01:27.436Z,83.30
2023-02-05T14:04:09.272Z,83.40
2023-02-05T14:06:42.297Z,83.10
2023-02-05T14:09:44.222Z,83.10
2023-02-05T14:12:24.642Z,83.10
2023-02-05T14:15:25.095Z,83.00
2023-02-05T14:17:57.516Z,82.80
2023-02-05T14:20:27.880Z,82.70
2023-02-05T14:23:02.776Z,82.60
2023-02-05T14:25:44.870Z,82.40
2023-02-05T14:28:33.115Z,83.20
2023-02-05T14:31:09.223Z,82.20
2023-02-05T14:33:46.663Z,82.10
2023-02-05T14:36:19.832Z,82.30
2023-02-05T14:39:07.970Z,82.30
2023-02-05T14:41:46.092Z,82.20
2023-02-05T14:44:22.984Z,81.80
2023-02-05T14:47:02.647Z,82.10
2023-02-05T14:49:36.156Z,81.80
2023-02-05T14:52:18.948Z,81.70
2023-02-05T14:54:58.903Z,81.80
2023-02-05T14:57:49.316Z,83.10
2023-02-05T15:00:27.451Z,82.30
2023-02-05T15:03:11.154Z,82.10
2023-02-05T15:05:52.912Z,81.80
2023-02-05T15:08:50.192Z,82.00
2023-02-05T15:11:29.782Z,82.30
2023-02-05T15:14:21.825Z,82.00
2023-02-05T15:17:12.407Z,82.20
2023-02-05T15:19:57.793Z,82.30
2023-02-05T15:22:42.673Z,82.50
2023-02-05T15:25:26.366Z,82.20
2023-02-05T15:28:07.526Z,81.80
2023-02-05T15:30:59.384Z,82.30
2023-02-05T15:34:12.439Z,82.50
2023-02-05T15:37:09.388Z,82.50
2023-02-05T15:39:53.234Z,82.70
2023-02-05T15:42:32.772Z,82.70
2023-02-05T15:45:28.122Z,82.90
2023-02-05T15:48:15.991Z,83.00
2023-02-05T15:51:00.313Z,83.30
2023-02-05T15:53:51.563Z,83.30
2023-02-05T15:56:31.227Z,83.30
2023-02-05T15:59:12.418Z,83.50
2023-02-05T16:02:03.177Z,83.40
2023-02-05T16:04:37.080Z,83.20
2023-02-05T16:07:22.300Z,83.20
2023-02-05T16:09:55.938Z,83.60
2023-02-05T16:12:26.554Z,83.40
2023-02-05T16:15:04.444Z,83.30
2023-02-05T16:17:42.921Z,83.10
2023-02-05T16:20:37.868Z,83.00
2023-02-05T16:23:15.084Z,82.80
2023-02-05T16:26:16.773Z,82.80
2023-02-05T16:28:57.567Z,82.90
2023-02-05T16:31:30.356Z,82.90
2023-02-05T16:34:03.807Z,82.90
2023-02-05T16:36:54.148Z,82.90
2023-02-05T16:39:30.542Z,83.00
2023-02-05T16:42:16.826Z,83.40
2023-02-05T16:44:51.148Z,83.20
2023-02-05T16:47:22.853Z,83.20
2023-02-05T16:49:53.907Z,83.00
2023-02-05T16:52:27.862Z,83.00
2023-02-05T16:54:58.497Z,83.10
2023-02-05T16:57:32.020Z,83.00
2023-02-05T17:00:10.241Z,83.10
2023-02-05T17:02:43.268Z,82.90
2023-02-05T17:05:26.835Z,83.00
2023-02-05T17:08:03.532Z,82.90
2023-02-05T17:10:35.109Z,82.90
2023-02-05T17:13:08.076Z,82.90
2023-02-05T17:15:42.845Z,82.60
2023-02-05T17:18:30.523Z,82.70
2023-02-05T17:21:37.005Z,82.70
2023-02-05T17:24:11.427Z,83.30
2023-02-05T17:26:44.632Z,82.70
2023-02-05T17:29:18.479Z,82.90
2023-02-05T17:31:48.808Z,82.90
2023-02-05T17:34:19.139Z,82.80
2023-02-05T17:36:49.748Z,82.70
2023-02-05T17:39:19.944Z,82.80
2023-02-05T17:42:08.318Z,83.10
2023-02-05T17:44:39.258Z,83.20
2023-02-05T17:47:10.812Z,83.20
2023-02-05T17:49:41.067Z,83.20
2023-02-05T17:52:12.596Z,83.40
2023-02-05T17:54:43.253Z,83.70
2023-02-05T17:57:23.645Z,83.70
2023-02-05T17:59:54.094Z,83.60
2023-02-05T18:02:25.924Z,83.70
2023-02-05T18:04:56.302Z,83.20
2023-02-05T18:07:45.270Z,83.30
2023-02-05T18:10:18.725Z,83.60
2023-02-05T18:12:49.304Z,83.80
2023-02-05T18:15:19.734Z,83.90
2023-02-05T18:17:50.265Z,84.20
2023-02-05T18:20:22.687Z,83.90
2023-02-05T18:22:53.126Z,83.80
2023-02-05T18:25:29.068Z,84.00
2023-02-05T18:27:59.742Z,84.30
2023-02-05T18:30:31.402Z,83.90
2023-02-05T18:33:01.927Z,83.90
2023-02-05T18:35:32.323Z,84.10
2023-02-05T18:38:02.656Z,84.10
2023-02-05T18:40:33.271Z,84.30
2023-02-05T18:43:04.268Z,84.40
2023-02-05T18:45:34.516Z,84.30
2023-02-05T18:48:05.468Z,84.00
2023-02-05T18:50:35.982Z,84.50
2023-02-05T18:53:06.516Z,84.20
2023-02-05T18:55:37.457Z,84.40
2023-02-05T18:58:08.064Z,84.50
2023-02-05T19:00:38.330Z,84.60
2023-02-05T19:03:08.572Z,84.70
2023-02-05T19:05:38.898Z,84.80
2023-02-05T19:08:09.605Z,84.70
2023-02-05T19:10:40.198Z,84.90
2023-02-05T19:13:10.891Z,84.90
2023-02-05T19:15:41.125Z,85.20
2023-02-05T19:18:11.485Z,85.40
2023-02-05T19:20:41.727Z,85.40
2023-02-05T19:23:12.129Z,85.60
2023-02-05T19:25:42.455Z,85.70
2023-02-05T19:28:12.693Z,85.80
2023-02-05T19:30:43.343Z,85.60
2023-02-05T19:33:14.296Z,85.60
2023-02-05T19:35:44.616Z,86.10
2023-02-05T19:38:15.546Z,86.20
2023-02-05T19:40:45.755Z,86.20
2023-02-05T19:43:19.428Z,86.20
2023-02-05T19:45:50.553Z,86.50
2023-02-05T19:48:20.770Z,86.50
2023-02-05T19:50:51.046Z,86.50
2023-02-05T19:53:22.928Z,86.50
2023-02-05T19:55:53.212Z,86.50
2023-02-05T19:58:23.511Z,86.90
2023-02-05T20:00:53.749Z,87.40
2023-02-05T20:03:23.962Z,87.40
2023-02-05T20:05:54.186Z,87.80
2023-02-05T20:08:28.422Z,87.80
2023-02-05T20:11:03.628Z,87.70
2023-02-05T20:13:35.866Z,87.10
2023-02-05T20:16:09.811Z,87.50
2023-02-05T20:18:41.430Z,87.20
2023-02-05T20:21:14.316Z,87.20
2023-02-05T20:23:44.858Z,87.00
2023-02-05T20:26:20.383Z,87.10
2023-02-05T20:29:11.683Z,87.30
2023-02-05T20:31:45.114Z,87.10
2023-02-05T20:34:24.251Z,86.40
2023-02-05T20:37:00.216Z,86.10
2023-02-05T20:39:32.463Z,86.10
2023-02-05T20:42:03.070Z,86.10
2023-02-05T20:44:35.974Z,85.50
2023-02-05T20:47:09.396Z,85.10
2023-02-05T20:49:41.909Z,85.00
2023-02-05T20:52:13.462Z,85.20
2023-02-05T20:54:44.360Z,84.80
2023-02-05T20:57:15.429Z,84.70
2023-02-05T20:59:45.679Z,84.40
2023-02-05T21:02:15.957Z,83.70
2023-02-05T21:04:46.227Z,83.30
2023-02-05T21:07:16.487Z,83.40
2023-02-05T21:09:47.247Z,83.10
2023-02-05T21:12:17.512Z,83.10
2023-02-05T21:14:47.764Z,82.40
2023-02-05T21:17:19.181Z,83.00
2023-02-05T21:19:49.443Z,82.50
2023-02-05T21:22:19.753Z,81.90
2023-02-05T21:24:50.009Z,81.70
2023-02-05T21:27:23.881Z,81.40
2023-02-05T21:29:54.618Z,81.60
2023-02-05T21:32:24.833Z,81.40
2023-02-05T21:34:55.527Z,81.00
2023-02-05T21:37:25.846Z,80.40
2023-02-05T21:40:08.487Z,79.80
2023-02-05T21:42:39.937Z,79.90
2023-02-05T21:45:11.097Z,78.80
2023-02-05T21:47:41.553Z,79.20
2023-02-05T21:50:12.109Z,78.60
2023-02-05T21:52:42.648Z,77.70
2023-02-05T21:55:14.173Z,77.00
2023-02-05T21:57:44.443Z,76.00
2023-02-05T22:00:15.304Z,75.60
2023-02-05T22:02:46.545Z,75.30
2023-02-05T22:05:16.850Z,73.20
2023-02-05T22:07:47.171Z,73.30
2023-02-05T22:10:17.831Z,72.10
2023-02-05T22:12:48.298Z,71.00
2023-02-05T22:15:18.546Z,70.80
2023-02-05T22:17:48.849Z,69.40
2023-02-05T22:20:19.213Z,68.90
2023-02-05T22:22:49.713Z,68.00
2023-02-05T22:25:20.035Z,66.70
2023-02-05T22:27:50.501Z,65.40
2023-02-05T22:30:20.968Z,65.20
2023-02-05T22:32:52.023Z,63.40
2023-02-05T22:35:22.248Z,62.90
2023-02-05T22:37:52.815Z,63.10
2023-02-05T22:40:23.072Z,62.70
2023-02-05T22:42:53.377Z,61.60
2023-02-05T22:45:23.681Z,60.90
2023-02-05T22:47:54.022Z,60.30
2023-02-05T22:50:24.356Z,60.60
2023-02-05T22:52:54.723Z,60.80
2023-02-05T22:55:24.938Z,60.50
2023-02-05T22:57:55.142Z,60.10
2023-02-05T23:00:25.857Z,59.60
2023-02-05T23:02:58.047Z,59.40
2023-02-05T23:05:33.249Z,58.40
2023-02-05T23:08:03.728Z,58.90
2023-02-05T23:10:34.011Z,59.00
2023-02-05T23:13:04.737Z,59.10
2023-02-05T23:15:35.433Z,59.10
2023-02-05T23:18:05.892Z,60.10
2023-02-05T23:20:36.345Z,60.30
2023-02-05T23:23:07.856Z,60.20
2023-02-05T23:25:39.174Z,60.00
2023-02-05T23:28:09.526Z,59.30
2023-02-05T23:30:39.922Z,59.20
2023-02-05T23:33:10.259Z,59.10
2023-02-05T23:35:42.764Z,59.30
2023-02-05T23:38:13.272Z,58.90
2023-02-05T23:40:43.658Z,59.30
2023-02-05T23:43:14.445Z,59.10
2023-02-05T23:45:45.661Z,58.20
2023-02-05T23:48:16.298Z,58.50
2023-02-05T23:50:47.520Z,58.60
2023-02-05T23:53:18.162Z,58.40
2023-02-05T23:55:49.193Z,58.00
2023-02-05T23:58:21.839Z,57.50
